sensor_id;sensor_type;location;lat;lon;timestamp;P1;durP1;ratioP1;P2;durP2;ratioP2
58354;SDS011;44160;49.080;19.302;2023-08-06T00:00:25;12.48;;;9.80;;
58354;SDS011;44160;49.080;19.302;2023-08-06T00:02:51;10.85;;;9.57;;
58354;SDS011;44160;49.080;19.302;2023-08-06T00:05:17;11.35;;;9.27;;
58354;SDS011;44160;49.080;19.302;2023-08-06T00:07:49;11.07;;;9.68;;
58354;SDS011;44160;49.080;19.302;2023-08-06T00:10:15;12.30;;;9.82;;
58354;SDS011;44160;49.080;19.302;2023-08-06T00:12:42;10.45;;;8.68;;
58354;SDS011;44160;49.080;19.302;2023-08-06T00:15:08;15.07;;;8.90;;
58354;SDS011;44160;49.080;19.302;2023-08-06T00:17:34;11.02;;;9.52;;
58354;SDS011;44160;49.080;19.302;2023-08-06T00:20:01;9.57;;;8.38;;
58354;SDS011;44160;49.080;19.302;2023-08-06T00:22:32;8.23;;;7.43;;
58354;SDS011;44160;49.080;19.302;2023-08-06T00:24:58;10.57;;;8.35;;
58354;SDS011;44160;49.080;19.302;2023-08-06T00:27:24;9.55;;;8.52;;
58354;SDS011;44160;49.080;19.302;2023-08-06T00:29:50;10.70;;;8.55;;
58354;SDS011;44160;49.080;19.302;2023-08-06T00:32:17;11.00;;;8.25;;
58354;SDS011;44160;49.080;19.302;2023-08-06T00:34:43;10.63;;;7.72;;
58354;SDS011;44160;49.080;19.302;2023-08-06T00:37:09;10.05;;;8.90;;
58354;SDS011;44160;49.080;19.302;2023-08-06T00:39:36;12.07;;;9.55;;
58354;SDS011;44160;49.080;19.302;2023-08-06T00:42:03;12.57;;;9.40;;
58354;SDS011;44160;49.080;19.302;2023-08-06T00:44:29;12.95;;;9.52;;
58354;SDS011;44160;49.080;19.302;2023-08-06T00:46:55;14.30;;;8.68;;
58354;SDS011;44160;49.080;19.302;2023-08-06T00:49:21;12.65;;;8.85;;
58354;SDS011;44160;49.080;19.302;2023-08-06T00:51:48;10.40;;;9.30;;
58354;SDS011;44160;49.080;19.302;2023-08-06T00:54:14;10.88;;;9.18;;
58354;SDS011;44160;49.080;19.302;2023-08-06T00:56:41;11.63;;;8.77;;
58354;SDS011;44160;49.080;19.302;2023-08-06T00:59:07;11.95;;;8.70;;
58354;SDS011;44160;49.080;19.302;2023-08-06T01:01:34;11.23;;;8.05;;
58354;SDS011;44160;49.080;19.302;2023-08-06T01:04:00;10.60;;;7.57;;
58354;SDS011;44160;49.080;19.302;2023-08-06T01:09:13;9.45;;;7.82;;
58354;SDS011;44160;49.080;19.302;2023-08-06T01:17:19;9.55;;;7.43;;
58354;SDS011;44160;49.080;19.302;2023-08-06T01:19:45;9.50;;;8.52;;
58354;SDS011;44160;49.080;19.302;2023-08-06T01:22:11;10.13;;;9.00;;
58354;SDS011;44160;49.080;19.302;2023-08-06T01:24:37;13.35;;;8.82;;
58354;SDS011;44160;49.080;19.302;2023-08-06T01:27:06;11.48;;;8.13;;
58354;SDS011;44160;49.080;19.302;2023-08-06T01:29:35;9.30;;;8.07;;
58354;SDS011;44160;49.080;19.302;2023-08-06T01:32:05;11.57;;;7.15;;
58354;SDS011;44160;49.080;19.302;2023-08-06T01:34:31;8.68;;;7.07;;
58354;SDS011;44160;49.080;19.302;2023-08-06T01:36:58;9.13;;;8.15;;
58354;SDS011;44160;49.080;19.302;2023-08-06T01:39:25;11.30;;;8.02;;
58354;SDS011;44160;49.080;19.302;2023-08-06T01:41:51;9.90;;;7.85;;
58354;SDS011;44160;49.080;19.302;2023-08-06T01:44:17;9.90;;;8.13;;
58354;SDS011;44160;49.080;19.302;2023-08-06T01:46:43;11.65;;;8.93;;
58354;SDS011;44160;49.080;19.302;2023-08-06T01:49:09;10.05;;;8.80;;
58354;SDS011;44160;49.080;19.302;2023-08-06T01:51:35;13.15;;;8.63;;
58354;SDS011;44160;49.080;19.302;2023-08-06T01:54:01;9.63;;;8.20;;
58354;SDS011;44160;49.080;19.302;2023-08-06T01:56:28;11.48;;;8.25;;
58354;SDS011;44160;49.080;19.302;2023-08-06T01:58:54;9.60;;;8.57;;
58354;SDS011;44160;49.080;19.302;2023-08-06T02:01:20;10.40;;;7.90;;
58354;SDS011;44160;49.080;19.302;2023-08-06T02:03:46;9.95;;;8.18;;
58354;SDS011;44160;49.080;19.302;2023-08-06T02:06:12;14.82;;;8.32;;
58354;SDS011;44160;49.080;19.302;2023-08-06T02:08:38;10.13;;;7.78;;
58354;SDS011;44160;49.080;19.302;2023-08-06T02:11:04;12.82;;;8.30;;
58354;SDS011;44160;49.080;19.302;2023-08-06T02:13:30;9.40;;;8.23;;
58354;SDS011;44160;49.080;19.302;2023-08-06T02:15:56;10.93;;;8.48;;
58354;SDS011;44160;49.080;19.302;2023-08-06T02:18:22;11.30;;;8.52;;
58354;SDS011;44160;49.080;19.302;2023-08-06T02:20:55;10.52;;;8.88;;
58354;SDS011;44160;49.080;19.302;2023-08-06T02:23:22;9.95;;;8.48;;
58354;SDS011;44160;49.080;19.302;2023-08-06T02:25:48;12.93;;;8.68;;
58354;SDS011;44160;49.080;19.302;2023-08-06T02:28:14;13.13;;;8.23;;
58354;SDS011;44160;49.080;19.302;2023-08-06T02:30:49;12.82;;;8.80;;
58354;SDS011;44160;49.080;19.302;2023-08-06T02:33:16;12.20;;;8.52;;
58354;SDS011;44160;49.080;19.302;2023-08-06T02:35:42;12.77;;;8.85;;
58354;SDS011;44160;49.080;19.302;2023-08-06T02:38:08;9.60;;;8.48;;
58354;SDS011;44160;49.080;19.302;2023-08-06T02:40:34;13.88;;;7.80;;
58354;SDS011;44160;49.080;19.302;2023-08-06T02:43:00;10.75;;;8.40;;
58354;SDS011;44160;49.080;19.302;2023-08-06T02:45:26;15.80;;;8.80;;
58354;SDS011;44160;49.080;19.302;2023-08-06T02:47:52;13.13;;;9.05;;
58354;SDS011;44160;49.080;19.302;2023-08-06T02:50:18;10.55;;;8.05;;
58354;SDS011;44160;49.080;19.302;2023-08-06T02:52:44;10.77;;;7.95;;
58354;SDS011;44160;49.080;19.302;2023-08-06T02:55:10;17.73;;;8.52;;
58354;SDS011;44160;49.080;19.302;2023-08-06T02:57:36;12.35;;;8.60;;
58354;SDS011;44160;49.080;19.302;2023-08-06T03:00:02;9.25;;;7.80;;
58354;SDS011;44160;49.080;19.302;2023-08-06T03:02:28;10.18;;;9.15;;
58354;SDS011;44160;49.080;19.302;2023-08-06T03:04:54;14.02;;;9.10;;
58354;SDS011;44160;49.080;19.302;2023-08-06T03:07:20;12.02;;;9.18;;
58354;SDS011;44160;49.080;19.302;2023-08-06T03:09:46;11.48;;;9.15;;
58354;SDS011;44160;49.080;19.302;2023-08-06T03:12:12;9.93;;;8.85;;
58354;SDS011;44160;49.080;19.302;2023-08-06T03:14:40;9.15;;;7.95;;
58354;SDS011;44160;49.080;19.302;2023-08-06T03:17:06;12.00;;;9.27;;
58354;SDS011;44160;49.080;19.302;2023-08-06T03:19:32;11.00;;;9.20;;
58354;SDS011;44160;49.080;19.302;2023-08-06T03:21:58;10.55;;;8.82;;
58354;SDS011;44160;49.080;19.302;2023-08-06T03:24:24;13.85;;;9.38;;
58354;SDS011;44160;49.080;19.302;2023-08-06T03:26:50;13.82;;;9.15;;
58354;SDS011;44160;49.080;19.302;2023-08-06T03:29:16;11.85;;;8.20;;
58354;SDS011;44160;49.080;19.302;2023-08-06T03:31:42;15.50;;;9.30;;
58354;SDS011;44160;49.080;19.302;2023-08-06T03:34:08;15.90;;;9.60;;
58354;SDS011;44160;49.080;19.302;2023-08-06T03:36:34;14.93;;;10.15;;
58354;SDS011;44160;49.080;19.302;2023-08-06T03:39:00;15.68;;;9.52;;
58354;SDS011;44160;49.080;19.302;2023-08-06T03:41:26;10.85;;;8.32;;
58354;SDS011;44160;49.080;19.302;2023-08-06T03:43:53;10.10;;;7.47;;
58354;SDS011;44160;49.080;19.302;2023-08-06T03:46:19;17.80;;;8.45;;
58354;SDS011;44160;49.080;19.302;2023-08-06T03:48:45;11.05;;;8.68;;
58354;SDS011;44160;49.080;19.302;2023-08-06T03:51:11;11.85;;;8.18;;
58354;SDS011;44160;49.080;19.302;2023-08-06T03:53:37;12.60;;;9.95;;
58354;SDS011;44160;49.080;19.302;2023-08-06T03:56:03;13.15;;;9.10;;
58354;SDS011;44160;49.080;19.302;2023-08-06T03:58:29;11.80;;;8.88;;
58354;SDS011;44160;49.080;19.302;2023-08-06T04:00:59;13.80;;;9.32;;
58354;SDS011;44160;49.080;19.302;2023-08-06T04:03:25;11.63;;;9.52;;
58354;SDS011;44160;49.080;19.302;2023-08-06T04:05:51;12.50;;;9.57;;
58354;SDS011;44160;49.080;19.302;2023-08-06T04:08:17;14.93;;;8.25;;
58354;SDS011;44160;49.080;19.302;2023-08-06T04:10:43;8.98;;;7.68;;
58354;SDS011;44160;49.080;19.302;2023-08-06T04:13:09;10.77;;;7.35;;
58354;SDS011;44160;49.080;19.302;2023-08-06T04:15:36;10.05;;;7.80;;
58354;SDS011;44160;49.080;19.302;2023-08-06T04:18:02;13.40;;;8.75;;
58354;SDS011;44160;49.080;19.302;2023-08-06T04:20:28;13.02;;;7.70;;
58354;SDS011;44160;49.080;19.302;2023-08-06T04:22:54;10.48;;;7.70;;
58354;SDS011;44160;49.080;19.302;2023-08-06T04:25:20;8.90;;;7.32;;
58354;SDS011;44160;49.080;19.302;2023-08-06T04:27:49;10.10;;;6.97;;
58354;SDS011;44160;49.080;19.302;2023-08-06T04:30:16;10.02;;;7.03;;
58354;SDS011;44160;49.080;19.302;2023-08-06T04:32:42;8.70;;;6.95;;
58354;SDS011;44160;49.080;19.302;2023-08-06T04:35:11;11.60;;;6.95;;
58354;SDS011;44160;49.080;19.302;2023-08-06T04:37:37;9.85;;;7.10;;
58354;SDS011;44160;49.080;19.302;2023-08-06T04:40:06;10.35;;;7.63;;
58354;SDS011;44160;49.080;19.302;2023-08-06T04:42:32;9.73;;;8.52;;
58354;SDS011;44160;49.080;19.302;2023-08-06T04:44:58;10.68;;;8.25;;
58354;SDS011;44160;49.080;19.302;2023-08-06T04:47:24;10.18;;;7.78;;
58354;SDS011;44160;49.080;19.302;2023-08-06T04:49:52;12.07;;;7.97;;
58354;SDS011;44160;49.080;19.302;2023-08-06T04:52:18;12.60;;;8.15;;
58354;SDS011;44160;49.080;19.302;2023-08-06T04:54:45;11.63;;;8.38;;
58354;SDS011;44160;49.080;19.302;2023-08-06T04:57:11;13.77;;;8.38;;
58354;SDS011;44160;49.080;19.302;2023-08-06T04:59:37;11.52;;;9.05;;
58354;SDS011;44160;49.080;19.302;2023-08-06T05:02:04;11.63;;;8.13;;
58354;SDS011;44160;49.080;19.302;2023-08-06T05:04:30;9.98;;;7.65;;
58354;SDS011;44160;49.080;19.302;2023-08-06T05:06:56;10.60;;;7.43;;
58354;SDS011;44160;49.080;19.302;2023-08-06T05:09:22;8.70;;;7.10;;
58354;SDS011;44160;49.080;19.302;2023-08-06T05:11:48;8.75;;;7.57;;
58354;SDS011;44160;49.080;19.302;2023-08-06T05:14:15;9.65;;;7.63;;
58354;SDS011;44160;49.080;19.302;2023-08-06T05:16:41;10.00;;;7.60;;
58354;SDS011;44160;49.080;19.302;2023-08-06T05:19:07;11.25;;;8.05;;
58354;SDS011;44160;49.080;19.302;2023-08-06T05:21:33;10.00;;;7.53;;
58354;SDS011;44160;49.080;19.302;2023-08-06T05:23:59;10.68;;;7.38;;
58354;SDS011;44160;49.080;19.302;2023-08-06T05:26:26;10.57;;;8.00;;
58354;SDS011;44160;49.080;19.302;2023-08-06T05:28:52;16.48;;;7.85;;
58354;SDS011;44160;49.080;19.302;2023-08-06T05:31:18;10.38;;;7.45;;
58354;SDS011;44160;49.080;19.302;2023-08-06T05:33:44;10.73;;;7.43;;
58354;SDS011;44160;49.080;19.302;2023-08-06T05:36:10;10.32;;;7.65;;
58354;SDS011;44160;49.080;19.302;2023-08-06T05:38:36;12.90;;;8.15;;
58354;SDS011;44160;49.080;19.302;2023-08-06T05:41:02;13.07;;;7.75;;
58354;SDS011;44160;49.080;19.302;2023-08-06T05:43:28;12.20;;;8.07;;
58354;SDS011;44160;49.080;19.302;2023-08-06T05:45:55;11.30;;;7.65;;
58354;SDS011;44160;49.080;19.302;2023-08-06T05:48:21;10.73;;;7.72;;
58354;SDS011;44160;49.080;19.302;2023-08-06T05:50:49;9.10;;;6.43;;
58354;SDS011;44160;49.080;19.302;2023-08-06T05:53:15;9.18;;;7.03;;
58354;SDS011;44160;49.080;19.302;2023-08-06T05:55:41;7.10;;;5.50;;
58354;SDS011;44160;49.080;19.302;2023-08-06T05:58:07;8.15;;;5.57;;
58354;SDS011;44160;49.080;19.302;2023-08-06T06:00:33;6.38;;;5.57;;
58354;SDS011;44160;49.080;19.302;2023-08-06T06:03:00;8.25;;;5.00;;
58354;SDS011;44160;49.080;19.302;2023-08-06T06:05:27;7.07;;;5.55;;
58354;SDS011;44160;49.080;19.302;2023-08-06T06:07:53;6.40;;;4.70;;
58354;SDS011;44160;49.080;19.302;2023-08-06T06:10:20;5.78;;;5.10;;
58354;SDS011;44160;49.080;19.302;2023-08-06T06:12:46;7.20;;;4.43;;
58354;SDS011;44160;49.080;19.302;2023-08-06T06:15:12;5.13;;;4.63;;
58354;SDS011;44160;49.080;19.302;2023-08-06T06:17:38;6.07;;;4.65;;
58354;SDS011;44160;49.080;19.302;2023-08-06T06:20:04;5.85;;;5.25;;
58354;SDS011;44160;49.080;19.302;2023-08-06T06:22:30;5.40;;;3.97;;
58354;SDS011;44160;49.080;19.302;2023-08-06T06:24:56;5.25;;;4.05;;
58354;SDS011;44160;49.080;19.302;2023-08-06T06:27:23;7.15;;;3.75;;
58354;SDS011;44160;49.080;19.302;2023-08-06T06:29:49;6.18;;;3.60;;
58354;SDS011;44160;49.080;19.302;2023-08-06T06:32:16;5.07;;;3.80;;
58354;SDS011;44160;49.080;19.302;2023-08-06T06:34:42;4.00;;;3.42;;
58354;SDS011;44160;49.080;19.302;2023-08-06T06:37:08;6.65;;;4.00;;
58354;SDS011;44160;49.080;19.302;2023-08-06T06:39:34;9.73;;;4.78;;
58354;SDS011;44160;49.080;19.302;2023-08-06T06:42:00;7.15;;;4.68;;
58354;SDS011;44160;49.080;19.302;2023-08-06T06:44:26;7.45;;;4.93;;
58354;SDS011;44160;49.080;19.302;2023-08-06T06:46:52;7.30;;;5.10;;
58354;SDS011;44160;49.080;19.302;2023-08-06T06:49:19;5.22;;;4.45;;
58354;SDS011;44160;49.080;19.302;2023-08-06T06:51:45;8.35;;;4.82;;
58354;SDS011;44160;49.080;19.302;2023-08-06T06:54:11;4.63;;;3.47;;
58354;SDS011;44160;49.080;19.302;2023-08-06T06:56:37;4.82;;;2.97;;
58354;SDS011;44160;49.080;19.302;2023-08-06T06:59:03;4.35;;;3.30;;
58354;SDS011;44160;49.080;19.302;2023-08-06T07:01:29;3.97;;;3.17;;
58354;SDS011;44160;49.080;19.302;2023-08-06T07:03:55;3.92;;;3.05;;
58354;SDS011;44160;49.080;19.302;2023-08-06T07:06:22;3.38;;;2.95;;
58354;SDS011;44160;49.080;19.302;2023-08-06T07:08:48;4.75;;;2.85;;
58354;SDS011;44160;49.080;19.302;2023-08-06T07:11:14;3.90;;;3.45;;
58354;SDS011;44160;49.080;19.302;2023-08-06T07:13:40;4.20;;;3.50;;
58354;SDS011;44160;49.080;19.302;2023-08-06T07:16:07;5.15;;;3.70;;
58354;SDS011;44160;49.080;19.302;2023-08-06T07:18:34;4.30;;;3.90;;
58354;SDS011;44160;49.080;19.302;2023-08-06T07:21:00;7.35;;;4.72;;
58354;SDS011;44160;49.080;19.302;2023-08-06T07:23:26;5.68;;;4.57;;
58354;SDS011;44160;49.080;19.302;2023-08-06T07:25:53;5.45;;;4.28;;
58354;SDS011;44160;49.080;19.302;2023-08-06T07:28:19;5.05;;;4.03;;
58354;SDS011;44160;49.080;19.302;2023-08-06T07:30:45;4.85;;;4.10;;
58354;SDS011;44160;49.080;19.302;2023-08-06T07:33:11;5.70;;;4.40;;
58354;SDS011;44160;49.080;19.302;2023-08-06T07:35:38;5.97;;;4.38;;
58354;SDS011;44160;49.080;19.302;2023-08-06T07:38:04;4.68;;;4.13;;
58354;SDS011;44160;49.080;19.302;2023-08-06T07:40:30;5.32;;;4.53;;
58354;SDS011;44160;49.080;19.302;2023-08-06T07:42:56;5.35;;;4.53;;
58354;SDS011;44160;49.080;19.302;2023-08-06T07:45:22;8.00;;;4.57;;
58354;SDS011;44160;49.080;19.302;2023-08-06T07:47:48;7.03;;;4.82;;
58354;SDS011;44160;49.080;19.302;2023-08-06T07:50:14;4.88;;;3.75;;
58354;SDS011;44160;49.080;19.302;2023-08-06T07:52:40;4.22;;;3.53;;
58354;SDS011;44160;49.080;19.302;2023-08-06T07:55:06;4.25;;;3.25;;
58354;SDS011;44160;49.080;19.302;2023-08-06T07:57:33;6.40;;;4.75;;
58354;SDS011;44160;49.080;19.302;2023-08-06T08:00:03;5.30;;;4.80;;
58354;SDS011;44160;49.080;19.302;2023-08-06T08:02:29;7.68;;;4.60;;
58354;SDS011;44160;49.080;19.302;2023-08-06T08:04:55;5.07;;;4.40;;
58354;SDS011;44160;49.080;19.302;2023-08-06T08:07:21;6.78;;;4.93;;
58354;SDS011;44160;49.080;19.302;2023-08-06T08:09:47;5.35;;;4.78;;
58354;SDS011;44160;49.080;19.302;2023-08-06T08:12:13;5.90;;;4.68;;
58354;SDS011;44160;49.080;19.302;2023-08-06T08:14:39;5.68;;;4.75;;
58354;SDS011;44160;49.080;19.302;2023-08-06T08:17:05;5.03;;;3.10;;
58354;SDS011;44160;49.080;19.302;2023-08-06T08:19:32;4.80;;;3.50;;
58354;SDS011;44160;49.080;19.302;2023-08-06T08:21:58;4.07;;;3.13;;
58354;SDS011;44160;49.080;19.302;2023-08-06T08:24:24;3.55;;;3.08;;
58354;SDS011;44160;49.080;19.302;2023-08-06T08:26:50;3.80;;;3.40;;
58354;SDS011;44160;49.080;19.302;2023-08-06T08:29:17;5.05;;;3.10;;
58354;SDS011;44160;49.080;19.302;2023-08-06T08:31:43;3.88;;;3.38;;
58354;SDS011;44160;49.080;19.302;2023-08-06T08:34:09;4.60;;;4.05;;
58354;SDS011;44160;49.080;19.302;2023-08-06T08:36:35;10.10;;;4.80;;
58354;SDS011;44160;49.080;19.302;2023-08-06T08:39:02;4.88;;;3.97;;
58354;SDS011;44160;49.080;19.302;2023-08-06T08:41:30;5.20;;;4.18;;
58354;SDS011;44160;49.080;19.302;2023-08-06T08:43:58;4.65;;;4.10;;
58354;SDS011;44160;49.080;19.302;2023-08-06T08:46:27;5.40;;;4.55;;
58354;SDS011;44160;49.080;19.302;2023-08-06T08:48:55;5.43;;;4.38;;
58354;SDS011;44160;49.080;19.302;2023-08-06T08:51:22;5.10;;;4.20;;
58354;SDS011;44160;49.080;19.302;2023-08-06T08:53:49;7.53;;;4.47;;
58354;SDS011;44160;49.080;19.302;2023-08-06T08:56:15;5.32;;;4.30;;
58354;SDS011;44160;49.080;19.302;2023-08-06T08:58:44;5.00;;;3.92;;
58354;SDS011;44160;49.080;19.302;2023-08-06T09:01:10;2.97;;;2.55;;
58354;SDS011;44160;49.080;19.302;2023-08-06T09:03:37;3.45;;;2.72;;
58354;SDS011;44160;49.080;19.302;2023-08-06T09:06:04;4.63;;;2.15;;
58354;SDS011;44160;49.080;19.302;2023-08-06T09:08:44;2.65;;;2.17;;
58354;SDS011;44160;49.080;19.302;2023-08-06T09:11:12;3.10;;;2.08;;
58354;SDS011;44160;49.080;19.302;2023-08-06T09:13:39;2.60;;;1.70;;
58354;SDS011;44160;49.080;19.302;2023-08-06T09:16:08;4.28;;;2.03;;
58354;SDS011;44160;49.080;19.302;2023-08-06T09:18:34;2.78;;;1.92;;
58354;SDS011;44160;49.080;19.302;2023-08-06T09:21:00;2.13;;;1.50;;
58354;SDS011;44160;49.080;19.302;2023-08-06T09:23:32;2.78;;;1.80;;
58354;SDS011;44160;49.080;19.302;2023-08-06T09:25:59;2.55;;;1.83;;
58354;SDS011;44160;49.080;19.302;2023-08-06T09:28:36;2.85;;;2.00;;
58354;SDS011;44160;49.080;19.302;2023-08-06T09:31:07;4.85;;;1.95;;
58354;SDS011;44160;49.080;19.302;2023-08-06T09:33:35;2.08;;;1.70;;
58354;SDS011;44160;49.080;19.302;2023-08-06T09:36:08;2.03;;;1.77;;
58354;SDS011;44160;49.080;19.302;2023-08-06T09:38:37;3.63;;;2.25;;
58354;SDS011;44160;49.080;19.302;2023-08-06T09:41:05;1.80;;;1.60;;
58354;SDS011;44160;49.080;19.302;2023-08-06T09:43:39;3.17;;;1.77;;
58354;SDS011;44160;49.080;19.302;2023-08-06T09:46:10;2.17;;;1.73;;
58354;SDS011;44160;49.080;19.302;2023-08-06T09:48:38;3.22;;;1.88;;
58354;SDS011;44160;49.080;19.302;2023-08-06T09:51:04;4.30;;;1.60;;
58354;SDS011;44160;49.080;19.302;2023-08-06T09:53:31;2.45;;;1.77;;
58354;SDS011;44160;49.080;19.302;2023-08-06T09:55:59;2.45;;;1.60;;
58354;SDS011;44160;49.080;19.302;2023-08-06T09:58:26;2.20;;;1.25;;
58354;SDS011;44160;49.080;19.302;2023-08-06T10:00:52;3.15;;;1.95;;
58354;SDS011;44160;49.080;19.302;2023-08-06T10:03:19;5.32;;;2.00;;
58354;SDS011;44160;49.080;19.302;2023-08-06T10:05:45;3.60;;;2.13;;
58354;SDS011;44160;49.080;19.302;2023-08-06T10:08:12;2.65;;;1.85;;
58354;SDS011;44160;49.080;19.302;2023-08-06T10:10:53;2.83;;;1.90;;
58354;SDS011;44160;49.080;19.302;2023-08-06T10:13:21;5.38;;;2.00;;
58354;SDS011;44160;49.080;19.302;2023-08-06T10:15:48;4.18;;;1.88;;
58354;SDS011;44160;49.080;19.302;2023-08-06T10:18:15;3.35;;;1.70;;
58354;SDS011;44160;49.080;19.302;2023-08-06T10:20:46;3.00;;;1.83;;
58354;SDS011;44160;49.080;19.302;2023-08-06T10:23:12;2.72;;;1.63;;
58354;SDS011;44160;49.080;19.302;2023-08-06T10:25:42;2.10;;;1.52;;
58354;SDS011;44160;49.080;19.302;2023-08-06T10:28:08;2.47;;;1.80;;
58354;SDS011;44160;49.080;19.302;2023-08-06T10:30:41;2.35;;;1.30;;
58354;SDS011;44160;49.080;19.302;2023-08-06T10:33:07;2.53;;;1.70;;
58354;SDS011;44160;49.080;19.302;2023-08-06T10:35:42;2.08;;;1.80;;
58354;SDS011;44160;49.080;19.302;2023-08-06T10:38:12;2.92;;;1.15;;
58354;SDS011;44160;49.080;19.302;2023-08-06T10:40:39;1.50;;;0.90;;
58354;SDS011;44160;49.080;19.302;2023-08-06T10:43:05;1.48;;;0.90;;
58354;SDS011;44160;49.080;19.302;2023-08-06T10:45:34;1.35;;;0.70;;
58354;SDS011;44160;49.080;19.302;2023-08-06T10:48:00;1.75;;;0.77;;
58354;SDS011;44160;49.080;19.302;2023-08-06T10:50:26;1.02;;;0.70;;
58354;SDS011;44160;49.080;19.302;2023-08-06T10:52:53;0.60;;;0.60;;
58354;SDS011;44160;49.080;19.302;2023-08-06T10:55:23;3.42;;;0.77;;
58354;SDS011;44160;49.080;19.302;2023-08-06T10:57:49;1.80;;;1.10;;
58354;SDS011;44160;49.080;19.302;2023-08-06T11:00:16;3.55;;;1.30;;
58354;SDS011;44160;49.080;19.302;2023-08-06T11:02:42;1.13;;;1.00;;
58354;SDS011;44160;49.080;19.302;2023-08-06T11:05:09;0.50;;;0.50;;
58354;SDS011;44160;49.080;19.302;2023-08-06T11:07:35;0.40;;;0.40;;
58354;SDS011;44160;49.080;19.302;2023-08-06T11:10:07;0.85;;;0.63;;
58354;SDS011;44160;49.080;19.302;2023-08-06T11:12:34;0.60;;;0.50;;
58354;SDS011;44160;49.080;19.302;2023-08-06T11:15:01;0.70;;;0.40;;
58354;SDS011;44160;49.080;19.302;2023-08-06T11:17:28;0.88;;;0.70;;
58354;SDS011;44160;49.080;19.302;2023-08-06T11:19:55;0.50;;;0.40;;
58354;SDS011;44160;49.080;19.302;2023-08-06T11:22:22;0.52;;;0.40;;
58354;SDS011;44160;49.080;19.302;2023-08-06T11:24:50;0.40;;;0.40;;
58354;SDS011;44160;49.080;19.302;2023-08-06T11:27:17;1.30;;;0.43;;
58354;SDS011;44160;49.080;19.302;2023-08-06T11:29:43;0.75;;;0.40;;
58354;SDS011;44160;49.080;19.302;2023-08-06T11:32:10;0.65;;;0.40;;
58354;SDS011;44160;49.080;19.302;2023-08-06T11:34:36;0.80;;;0.43;;
58354;SDS011;44160;49.080;19.302;2023-08-06T11:37:03;0.43;;;0.43;;
58354;SDS011;44160;49.080;19.302;2023-08-06T11:39:33;0.40;;;0.40;;
58354;SDS011;44160;49.080;19.302;2023-08-06T11:41:59;0.47;;;0.47;;
58354;SDS011;44160;49.080;19.302;2023-08-06T11:44:29;2.63;;;0.40;;
58354;SDS011;44160;49.080;19.302;2023-08-06T11:46:56;0.95;;;0.50;;
58354;SDS011;44160;49.080;19.302;2023-08-06T11:49:40;0.95;;;0.60;;
58354;SDS011;44160;49.080;19.302;2023-08-06T11:52:13;0.45;;;0.45;;
58354;SDS011;44160;49.080;19.302;2023-08-06T11:54:40;0.73;;;0.60;;
58354;SDS011;44160;49.080;19.302;2023-08-06T11:57:06;0.90;;;0.55;;
58354;SDS011;44160;49.080;19.302;2023-08-06T11:59:33;1.05;;;0.60;;
58354;SDS011;44160;49.080;19.302;2023-08-06T12:02:02;2.10;;;0.65;;
58354;SDS011;44160;49.080;19.302;2023-08-06T12:07:04;1.23;;;0.60;;
58354;SDS011;44160;49.080;19.302;2023-08-06T12:09:30;0.95;;;0.60;;
58354;SDS011;44160;49.080;19.302;2023-08-06T12:11:56;0.55;;;0.55;;
58354;SDS011;44160;49.080;19.302;2023-08-06T12:14:22;0.50;;;0.50;;
58354;SDS011;44160;49.080;19.302;2023-08-06T12:16:49;0.68;;;0.60;;
58354;SDS011;44160;49.080;19.302;2023-08-06T12:19:16;0.43;;;0.43;;
58354;SDS011;44160;49.080;19.302;2023-08-06T12:21:42;0.47;;;0.47;;
58354;SDS011;44160;49.080;19.302;2023-08-06T12:24:08;0.45;;;0.45;;
58354;SDS011;44160;49.080;19.302;2023-08-06T12:26:35;1.65;;;0.50;;
58354;SDS011;44160;49.080;19.302;2023-08-06T12:29:01;1.10;;;0.60;;
58354;SDS011;44160;49.080;19.302;2023-08-06T12:31:29;2.45;;;0.70;;
58354;SDS011;44160;49.080;19.302;2023-08-06T12:33:55;0.63;;;0.60;;
58354;SDS011;44160;49.080;19.302;2023-08-06T12:36:21;0.45;;;0.45;;
58354;SDS011;44160;49.080;19.302;2023-08-06T12:38:47;0.77;;;0.60;;
58354;SDS011;44160;49.080;19.302;2023-08-06T12:41:13;0.82;;;0.80;;
58354;SDS011;44160;49.080;19.302;2023-08-06T12:43:39;2.30;;;0.70;;
58354;SDS011;44160;49.080;19.302;2023-08-06T12:46:05;0.52;;;0.52;;
58354;SDS011;44160;49.080;19.302;2023-08-06T12:48:31;0.50;;;0.50;;
58354;SDS011;44160;49.080;19.302;2023-08-06T12:50:57;0.68;;;0.68;;
58354;SDS011;44160;49.080;19.302;2023-08-06T12:53:24;0.57;;;0.55;;
58354;SDS011;44160;49.080;19.302;2023-08-06T12:55:50;0.70;;;0.68;;
58354;SDS011;44160;49.080;19.302;2023-08-06T12:58:19;1.17;;;0.60;;
58354;SDS011;44160;49.080;19.302;2023-08-06T13:00:45;1.40;;;0.65;;
58354;SDS011;44160;49.080;19.302;2023-08-06T13:03:12;0.75;;;0.60;;
58354;SDS011;44160;49.080;19.302;2023-08-06T13:05:38;0.50;;;0.50;;
58354;SDS011;44160;49.080;19.302;2023-08-06T13:08:04;0.50;;;0.50;;
58354;SDS011;44160;49.080;19.302;2023-08-06T13:10:30;0.40;;;0.40;;
58354;SDS011;44160;49.080;19.302;2023-08-06T13:12:56;0.40;;;0.40;;
58354;SDS011;44160;49.080;19.302;2023-08-06T13:15:22;0.40;;;0.35;;
58354;SDS011;44160;49.080;19.302;2023-08-06T13:17:48;0.65;;;0.50;;
58354;SDS011;44160;49.080;19.302;2023-08-06T13:20:17;0.40;;;0.40;;
58354;SDS011;44160;49.080;19.302;2023-08-06T13:22:44;0.55;;;0.50;;
58354;SDS011;44160;49.080;19.302;2023-08-06T13:25:14;1.85;;;0.50;;
58354;SDS011;44160;49.080;19.302;2023-08-06T13:27:43;0.50;;;0.50;;
58354;SDS011;44160;49.080;19.302;2023-08-06T13:30:11;1.42;;;0.50;;
58354;SDS011;44160;49.080;19.302;2023-08-06T13:32:37;0.60;;;0.40;;
58354;SDS011;44160;49.080;19.302;2023-08-06T13:35:04;0.40;;;0.40;;
58354;SDS011;44160;49.080;19.302;2023-08-06T13:37:30;0.40;;;0.40;;
58354;SDS011;44160;49.080;19.302;2023-08-06T13:39:56;0.40;;;0.40;;
58354;SDS011;44160;49.080;19.302;2023-08-06T13:42:22;0.50;;;0.40;;
58354;SDS011;44160;49.080;19.302;2023-08-06T13:44:49;0.50;;;0.40;;
58354;SDS011;44160;49.080;19.302;2023-08-06T13:47:15;1.15;;;0.40;;
58354;SDS011;44160;49.080;19.302;2023-08-06T13:49:41;0.40;;;0.40;;
58354;SDS011;44160;49.080;19.302;2023-08-06T13:52:07;0.40;;;0.40;;
58354;SDS011;44160;49.080;19.302;2023-08-06T13:54:33;0.60;;;0.60;;
58354;SDS011;44160;49.080;19.302;2023-08-06T13:56:59;0.40;;;0.40;;
58354;SDS011;44160;49.080;19.302;2023-08-06T13:59:25;0.77;;;0.40;;
58354;SDS011;44160;49.080;19.302;2023-08-06T14:01:51;1.15;;;0.40;;
58354;SDS011;44160;49.080;19.302;2023-08-06T14:04:18;0.40;;;0.40;;
58354;SDS011;44160;49.080;19.302;2023-08-06T14:06:54;0.50;;;0.50;;
58354;SDS011;44160;49.080;19.302;2023-08-06T14:09:23;0.60;;;0.43;;
58354;SDS011;44160;49.080;19.302;2023-08-06T14:11:49;0.52;;;0.50;;
58354;SDS011;44160;49.080;19.302;2023-08-06T14:14:15;0.40;;;0.40;;
58354;SDS011;44160;49.080;19.302;2023-08-06T14:16:42;0.47;;;0.40;;
58354;SDS011;44160;49.080;19.302;2023-08-06T14:19:09;2.40;;;0.40;;
58354;SDS011;44160;49.080;19.302;2023-08-06T14:21:35;0.95;;;0.60;;
58354;SDS011;44160;49.080;19.302;2023-08-06T14:24:01;0.40;;;0.40;;
58354;SDS011;44160;49.080;19.302;2023-08-06T14:26:27;0.50;;;0.50;;
58354;SDS011;44160;49.080;19.302;2023-08-06T14:28:53;0.40;;;0.40;;
58354;SDS011;44160;49.080;19.302;2023-08-06T14:31:19;0.30;;;0.30;;
58354;SDS011;44160;49.080;19.302;2023-08-06T14:33:46;0.93;;;0.40;;
58354;SDS011;44160;49.080;19.302;2023-08-06T14:36:12;0.38;;;0.38;;
58354;SDS011;44160;49.080;19.302;2023-08-06T14:38:38;0.50;;;0.50;;